createdAt,value
2023-01-29T00:00:21.001Z,102925.75
2023-01-29T00:01:21.520Z,102926.15
2023-01-29T00:02:22.105Z,102926.81
2023-01-29T00:03:22.371Z,102927.97
2023-01-29T00:04:23.044Z,102928.97
2023-01-29T00:05:28.377Z,102929.63
2023-01-29T00:06:23.914Z,102930.47
2023-01-29T00:07:24.705Z,102931.73
2023-01-29T00:08:25.124Z,102932.23
2023-01-29T00:09:25.991Z,102933.39
2023-01-29T00:10:26.522Z,102934.16
2023-01-29T00:11:26.792Z,102934.98
2023-01-29T00:12:27.204Z,102935.75
2023-01-29T00:13:27.368Z,102936.61
2023-01-29T00:14:28.020Z,102937.75
2023-01-29T00:15:28.114Z,102938.14
2023-01-29T00:16:28.540Z,102938.58
2023-01-29T00:17:28.832Z,102939.17
2023-01-29T00:17:37.492Z,102968.06
2023-01-29T00:18:37.498Z,102952.22
2023-01-29T00:19:38.350Z,102952.05
2023-01-29T00:20:40.355Z,102951.83
2023-01-29T00:21:39.524Z,102951.52
2023-01-29T00:22:40.021Z,102951.36
2023-01-29T00:23:40.022Z,102951.13
2023-01-29T00:24:40.036Z,102951.13
2023-01-29T00:25:40.803Z,102950.89
2023-01-29T00:26:42.061Z,102950.40
2023-01-29T00:27:41.590Z,102950.16
2023-01-29T00:28:41.793Z,102950.00
2023-01-29T00:29:42.065Z,102949.53
2023-01-29T00:30:42.322Z,102948.55
2023-01-29T00:31:42.443Z,102947.81
2023-01-29T00:32:42.413Z,102947.34
2023-01-29T00:33:42.786Z,102946.78
2023-01-29T00:34:43.343Z,102945.86
2023-01-29T00:35:43.869Z,102945.56
2023-01-29T00:36:44.799Z,102944.73
2023-01-29T00:37:45.365Z,102945.13
2023-01-29T00:38:46.228Z,102944.56
2023-01-29T00:39:48.343Z,102943.83
2023-01-29T00:40:46.816Z,102942.77
2023-01-29T00:41:47.221Z,102942.01
2023-01-29T00:42:47.899Z,102941.11
2023-01-29T00:43:48.094Z,102940.78
2023-01-29T00:44:48.474Z,102939.41
2023-01-29T00:45:49.762Z,102938.48
2023-01-29T00:46:48.979Z,102937.82
2023-01-29T00:47:49.042Z,102936.89
2023-01-29T00:48:49.707Z,102936.09
2023-01-29T00:49:49.675Z,102935.45
2023-01-29T00:49:58.281Z,102939.72
2023-01-29T00:50:58.546Z,102929.09
2023-01-29T00:51:59.315Z,102928.37
2023-01-29T00:52:59.843Z,102928.03
2023-01-29T00:54:00.790Z,102927.17
2023-01-29T00:55:01.333Z,102926.53
2023-01-29T00:56:01.934Z,102925.73
2023-01-29T00:57:02.744Z,102924.73
2023-01-29T00:58:03.287Z,102923.59
2023-01-29T00:59:04.565Z,102922.20
2023-01-29T01:00:03.547Z,102920.56
2023-01-29T01:01:04.178Z,102919.83
2023-01-29T01:02:04.311Z,102918.27
2023-01-29T01:03:04.706Z,102917.69
2023-01-29T01:04:05.471Z,102916.25
2023-01-29T01:05:06.398Z,102915.35
2023-01-29T01:06:07.052Z,102913.75
2023-01-29T01:07:07.471Z,102912.69
2023-01-29T01:08:07.500Z,102911.11
2023-01-29T01:09:08.327Z,102909.61
2023-01-29T01:10:08.762Z,102907.31
2023-01-29T01:11:08.851Z,102905.75
2023-01-29T01:12:09.867Z,102904.68
2023-01-29T01:13:11.485Z,102903.02
2023-01-29T01:14:11.240Z,102901.37
2023-01-29T01:15:11.857Z,102900.20
2023-01-29T01:16:12.608Z,102898.67
2023-01-29T01:17:12.946Z,102898.11
2023-01-29T01:18:13.376Z,102896.44
2023-01-29T01:19:13.524Z,102895.13
2023-01-29T01:20:14.211Z,102893.61
2023-01-29T01:21:14.735Z,102891.21
2023-01-29T01:21:23.390Z,102876.45
2023-01-29T01:22:23.656Z,102857.97
2023-01-29T01:23:24.106Z,102857.23
2023-01-29T01:24:24.444Z,102856.97
2023-01-29T01:25:24.838Z,102856.64
2023-01-29T01:26:25.323Z,102856.64
2023-01-29T01:27:25.611Z,102856.54
2023-01-29T01:28:25.993Z,102856.21
2023-01-29T01:29:26.402Z,102855.88
2023-01-29T01:30:27.306Z,102856.05
2023-01-29T01:31:28.094Z,102855.71
2023-01-29T01:32:28.020Z,102855.81
2023-01-29T01:33:28.329Z,102855.48
2023-01-29T01:34:28.318Z,102855.48
2023-01-29T01:35:28.795Z,102855.38
2023-01-29T01:36:29.565Z,102855.38
2023-01-29T01:37:29.628Z,102855.05
2023-01-29T01:38:30.313Z,102854.62
2023-01-29T01:39:31.162Z,102854.45
2023-01-29T01:40:31.927Z,102854.78
2023-01-29T01:41:32.133Z,102854.05
2023-01-29T01:42:32.627Z,102854.05
2023-01-29T01:43:32.968Z,102853.79
2023-01-29T01:44:32.986Z,102853.79
2023-01-29T01:45:34.005Z,102853.79
2023-01-29T01:46:34.141Z,102854.45
2023-01-29T01:47:34.666Z,102854.34
2023-01-29T01:48:35.239Z,102854.75
2023-01-29T01:49:35.230Z,102854.68
2023-01-29T01:50:35.662Z,102854.74
2023-01-29T01:51:35.675Z,102855.03
2023-01-29T01:52:36.652Z,102855.23
2023-01-29T01:52:45.321Z,102872.91
2023-01-29T01:53:45.730Z,102860.61
2023-01-29T01:54:46.642Z,102861.10
2023-01-29T01:55:47.176Z,102861.10
2023-01-29T01:56:47.792Z,102861.44
2023-01-29T01:57:48.459Z,102861.77
2023-01-29T01:58:49.029Z,102861.93
2023-01-29T01:59:49.596Z,102862.16
2023-01-29T02:00:50.122Z,102862.66
2023-01-29T02:01:51.025Z,102862.72
2023-01-29T02:02:52.060Z,102862.95
2023-01-29T02:03:52.326Z,102863.50
2023-01-29T02:04:52.976Z,102863.86
2023-01-29T02:05:54.644Z,102864.26
2023-01-29T02:06:54.567Z,102864.28
2023-01-29T02:07:55.496Z,102863.98
2023-01-29T02:08:55.779Z,102864.30
2023-01-29T02:09:56.667Z,102864.43
2023-01-29T02:10:57.285Z,102864.79
2023-01-29T02:11:57.989Z,102865.18
2023-01-29T02:12:58.717Z,102865.74
2023-01-29T02:13:59.001Z,102866.73
2023-01-29T02:14:59.147Z,102867.59
2023-01-29T02:15:59.548Z,102869.02
2023-01-29T02:16:59.821Z,102870.23
2023-01-29T02:17:59.885Z,102871.46
2023-01-29T02:19:00.132Z,102872.35
2023-01-29T02:20:00.322Z,102873.84
2023-01-29T02:21:00.429Z,102875.27
2023-01-29T02:22:00.728Z,102876.09
2023-01-29T02:23:02.702Z,102877.69
2023-01-29T02:24:02.396Z,102879.12
2023-01-29T02:24:11.551Z,102905.60
2023-01-29T02:25:12.348Z,102899.56
2023-01-29T02:26:13.411Z,102899.50
2023-01-29T02:27:14.263Z,102898.94
2023-01-29T02:28:15.086Z,102898.61
2023-01-29T02:29:15.898Z,102898.14
2023-01-29T02:30:16.905Z,102898.25
2023-01-29T02:31:16.847Z,102898.19
2023-01-29T02:32:17.593Z,102897.30
2023-01-29T02:33:18.249Z,102896.51
2023-01-29T02:34:18.590Z,102896.28
2023-01-29T02:35:18.717Z,102895.63
2023-01-29T02:36:19.304Z,102895.00
2023-01-29T02:37:20.576Z,102894.17
2023-01-29T02:38:20.138Z,102893.54
2023-01-29T02:39:21.141Z,102892.65
2023-01-29T02:40:21.682Z,102892.16
2023-01-29T02:41:22.361Z,102891.86
2023-01-29T02:42:23.305Z,102891.30
2023-01-29T02:43:23.748Z,102890.97
2023-01-29T02:44:24.363Z,102890.75
2023-01-29T02:45:25.572Z,102890.25
2023-01-29T02:46:25.205Z,102889.75
2023-01-29T02:47:25.516Z,102889.59
2023-01-29T02:48:26.038Z,102888.75
2023-01-29T02:49:26.938Z,102887.93
2023-01-29T02:50:27.592Z,102886.77
2023-01-29T02:51:28.283Z,102885.94
2023-01-29T02:52:29.128Z,102885.05
2023-01-29T02:53:29.706Z,102884.42
2023-01-29T02:53:38.357Z,102882.12
2023-01-29T02:54:39.094Z,102865.47
2023-01-29T02:55:39.813Z,102865.05
2023-01-29T02:56:41.692Z,102865.14
2023-01-29T02:57:41.417Z,102865.14
2023-01-29T02:58:42.415Z,102865.04
2023-01-29T02:59:43.073Z,102865.20
2023-01-29T03:00:43.889Z,102865.38
2023-01-29T03:01:44.350Z,102865.11
2023-01-29T03:02:44.916Z,102864.67
2023-01-29T03:03:45.882Z,102864.97
2023-01-29T03:04:46.590Z,102864.96
2023-01-29T03:05:47.376Z,102864.96
2023-01-29T03:06:47.961Z,102865.26
2023-01-29T03:07:48.714Z,102864.99
2023-01-29T03:08:49.270Z,102865.75
2023-01-29T03:09:49.963Z,102865.59
2023-01-29T03:10:50.465Z,102866.09
2023-01-29T03:11:51.246Z,102866.02
2023-01-29T03:12:51.658Z,102866.35
2023-01-29T03:13:52.670Z,102866.69
2023-01-29T03:14:53.589Z,102866.98
2023-01-29T03:15:54.200Z,102867.81
2023-01-29T03:16:54.876Z,102867.64
2023-01-29T03:17:55.836Z,102868.20
2023-01-29T03:18:57.789Z,102868.27
2023-01-29T03:19:57.680Z,102867.83
2023-01-29T03:20:58.390Z,102867.39
2023-01-29T03:21:59.275Z,102867.09
2023-01-29T03:22:59.826Z,102866.48
2023-01-29T03:23:08.489Z,102877.86
2023-01-29T03:24:09.162Z,102865.56
2023-01-29T03:25:09.839Z,102864.80
2023-01-29T03:26:11.514Z,102864.47
2023-01-29T03:27:11.355Z,102864.20
2023-01-29T03:28:11.364Z,102864.97
2023-01-29T03:29:12.141Z,102865.46
2023-01-29T03:30:13.059Z,102866.22
2023-01-29T03:31:13.488Z,102866.89
2023-01-29T03:32:14.079Z,102867.39
2023-01-29T03:33:14.804Z,102868.38
2023-01-29T03:34:15.534Z,102868.48
2023-01-29T03:35:16.271Z,102868.61
2023-01-29T03:36:16.833Z,102868.44
2023-01-29T03:37:17.568Z,102868.08
2023-01-29T03:38:18.342Z,102867.97
2023-01-29T03:39:18.600Z,102868.14
2023-01-29T03:40:19.000Z,102868.20
2023-01-29T03:41:19.637Z,102868.69
2023-01-29T03:42:20.163Z,102869.19
2023-01-29T03:43:20.990Z,102869.42
2023-01-29T03:44:22.243Z,102870.20
2023-01-29T03:45:23.079Z,102870.87
2023-01-29T03:46:22.775Z,102871.06
2023-01-29T03:47:23.651Z,102871.55
2023-01-29T03:48:24.123Z,102872.11
2023-01-29T03:49:24.870Z,102871.97
2023-01-29T03:50:25.756Z,102872.36
2023-01-29T03:51:26.349Z,102873.09
2023-01-29T03:52:26.927Z,102872.98
2023-01-29T03:53:27.024Z,102874.11
2023-01-29T03:53:36.167Z,102901.52
2023-01-29T03:54:36.682Z,102886.58
2023-01-29T03:55:37.524Z,102886.25
2023-01-29T03:56:38.406Z,102885.75
2023-01-29T03:57:39.182Z,102885.09
2023-01-29T03:58:39.747Z,102885.19
2023-01-29T03:59:39.904Z,102884.63
2023-01-29T04:00:40.140Z,102883.80
2023-01-29T04:01:40.871Z,102883.41
2023-01-29T04:02:41.730Z,102883.97
2023-01-29T04:03:42.328Z,102884.56
2023-01-29T04:04:42.972Z,102884.90
2023-01-29T04:05:43.990Z,102885.33
2023-01-29T04:06:43.969Z,102885.89
2023-01-29T04:07:44.257Z,102886.27
2023-01-29T04:08:45.137Z,102886.36
2023-01-29T04:09:45.954Z,102886.70
2023-01-29T04:10:46.152Z,102887.13
2023-01-29T04:11:46.738Z,102888.63
2023-01-29T04:12:47.672Z,102890.09
2023-01-29T04:13:47.864Z,102891.35
2023-01-29T04:14:48.057Z,102892.19
2023-01-29T04:15:49.798Z,102893.05
2023-01-29T04:16:49.488Z,102893.98
2023-01-29T04:17:50.027Z,102894.91
2023-01-29T04:18:50.473Z,102895.28
2023-01-29T04:19:51.201Z,102895.62
2023-01-29T04:20:52.222Z,102896.72
2023-01-29T04:21:53.110Z,102896.98
2023-01-29T04:22:53.600Z,102897.95
2023-01-29T04:23:53.892Z,102899.16
2023-01-29T04:24:54.465Z,102900.25
2023-01-29T04:25:55.462Z,102901.52
2023-01-29T04:26:56.303Z,102902.18
2023-01-29T04:27:04.900Z,102911.98
2023-01-29T04:28:05.904Z,102910.28
2023-01-29T04:29:05.914Z,102909.52
2023-01-29T04:30:06.388Z,102908.96
2023-01-29T04:31:07.411Z,102907.80
2023-01-29T04:32:07.855Z,102906.91
2023-01-29T04:33:08.525Z,102906.15
2023-01-29T04:34:09.325Z,102905.42
2023-01-29T04:35:10.028Z,102904.09
2023-01-29T04:36:10.388Z,102903.14
2023-01-29T04:37:11.316Z,102901.65
2023-01-29T04:38:12.954Z,102901.16
2023-01-29T04:39:12.524Z,102899.77
2023-01-29T04:40:13.438Z,102898.54
2023-01-29T04:41:14.080Z,102897.05
2023-01-29T04:42:14.865Z,102896.00
2023-01-29T04:43:15.398Z,102894.21
2023-01-29T04:44:16.284Z,102892.23
2023-01-29T04:45:17.198Z,102889.78
2023-01-29T04:46:17.939Z,102887.40
2023-01-29T04:47:18.839Z,102885.28
2023-01-29T04:48:19.379Z,102882.67
2023-01-29T04:49:20.345Z,102880.45
2023-01-29T04:50:21.337Z,102878.34
2023-01-29T04:51:21.581Z,102876.02
2023-01-29T04:52:22.339Z,102873.91
2023-01-29T04:53:22.981Z,102871.75
2023-01-29T04:54:23.052Z,102869.59
2023-01-29T04:55:23.532Z,102866.84
2023-01-29T04:56:23.558Z,102864.30
2023-01-29T04:57:24.488Z,102861.48
2023-01-29T04:58:24.462Z,102858.89
2023-01-29T04:59:25.459Z,102856.73
2023-01-29T04:59:34.093Z,102843.90
2023-01-29T05:00:34.229Z,102830.77
2023-01-29T05:01:34.980Z,102831.00
2023-01-29T05:02:35.516Z,102831.50
2023-01-29T05:03:35.623Z,102832.33
2023-01-29T05:04:39.114Z,102832.83
2023-01-29T05:05:36.645Z,102833.32
2023-01-29T05:06:36.729Z,102834.31
2023-01-29T05:07:36.887Z,102834.94
2023-01-29T05:08:36.927Z,102835.66
2023-01-29T05:09:37.520Z,102836.52
2023-01-29T05:10:37.702Z,102837.58
2023-01-29T05:11:38.222Z,102839.02
2023-01-29T05:12:38.829Z,102840.31
2023-01-29T05:13:39.703Z,102841.10
2023-01-29T05:14:39.856Z,102842.32
2023-01-29T05:15:39.910Z,102843.77
2023-01-29T05:16:40.814Z,102844.83
2023-01-29T05:17:41.672Z,102846.28
2023-01-29T05:18:42.243Z,102847.83
2023-01-29T05:19:42.830Z,102849.18
2023-01-29T05:20:43.448Z,102850.56
2023-01-29T05:21:44.092Z,102852.72
2023-01-29T05:22:44.693Z,102854.77
2023-01-29T05:23:44.860Z,102857.19
2023-01-29T05:24:45.581Z,102859.17
2023-01-29T05:25:46.302Z,102860.73
2023-01-29T05:26:47.265Z,102862.39
2023-01-29T05:27:48.313Z,102863.71
2023-01-29T05:28:48.140Z,102864.61
2023-01-29T05:29:48.799Z,102865.59
2023-01-29T05:30:48.925Z,102867.09
2023-01-29T05:31:49.726Z,102867.69
2023-01-29T05:32:50.446Z,102868.75
2023-01-29T05:33:01.135Z,102894.19
2023-01-29T05:34:00.814Z,102881.89
2023-01-29T05:35:01.316Z,102881.73
2023-01-29T05:36:02.275Z,102881.50
2023-01-29T05:37:02.955Z,102881.33
2023-01-29T05:38:03.032Z,102880.70
2023-01-29T05:39:03.730Z,102880.05
2023-01-29T05:40:04.476Z,102879.42
2023-01-29T05:41:04.575Z,102878.69
2023-01-29T05:42:04.802Z,102877.77
2023-01-29T05:43:05.400Z,102877.37
2023-01-29T05:44:05.849Z,102875.98
2023-01-29T05:45:05.992Z,102875.16
2023-01-29T05:46:06.553Z,102874.59
2023-01-29T05:47:06.760Z,102873.70
2023-01-29T05:48:07.268Z,102872.88
2023-01-29T05:49:07.696Z,102872.45
2023-01-29T05:50:07.780Z,102871.78
2023-01-29T05:51:08.301Z,102870.98
2023-01-29T05:52:09.140Z,102870.33
2023-01-29T05:53:09.162Z,102870.63
2023-01-29T05:54:09.852Z,102870.04
2023-01-29T05:55:10.294Z,102869.74
2023-01-29T05:56:10.962Z,102869.58
2023-01-29T05:57:11.731Z,102869.12
2023-01-29T05:58:12.294Z,102869.39
2023-01-29T05:59:12.359Z,102868.90
2023-01-29T06:00:13.384Z,102869.37
2023-01-29T06:01:13.917Z,102869.31
2023-01-29T06:02:14.472Z,102869.67
2023-01-29T06:03:15.091Z,102869.61
2023-01-29T06:04:15.526Z,102869.75
2023-01-29T06:05:15.548Z,102869.09
2023-01-29T06:05:24.161Z,102877.59
2023-01-29T06:06:25.069Z,102863.59
2023-01-29T06:07:25.944Z,102863.20
2023-01-29T06:08:26.759Z,102863.03
2023-01-29T06:09:27.682Z,102862.83
2023-01-29T06:10:28.160Z,102863.00
2023-01-29T06:11:28.740Z,102862.83
2023-01-29T06:12:28.750Z,102862.23
2023-01-29T06:13:29.649Z,102861.23
2023-01-29T06:14:30.424Z,102859.97
2023-01-29T06:15:31.269Z,102858.02
2023-01-29T06:16:31.437Z,102856.69
2023-01-29T06:17:32.275Z,102854.72
2023-01-29T06:18:33.164Z,102853.63
2023-01-29T06:19:34.115Z,102851.76
2023-01-29T06:20:34.694Z,102850.83
2023-01-29T06:21:35.281Z,102849.23
2023-01-29T06:22:35.819Z,102848.54
2023-01-29T06:23:36.645Z,102847.20
2023-01-29T06:24:37.154Z,102845.95
2023-01-29T06:25:38.933Z,102844.86
2023-01-29T06:26:38.853Z,102843.36
2023-01-29T06:27:39.365Z,102841.60
2023-01-29T06:28:40.115Z,102839.41
2023-01-29T06:29:40.624Z,102838.55
2023-01-29T06:30:41.573Z,102836.95
2023-01-29T06:31:42.578Z,102835.45
2023-01-29T06:32:43.238Z,102834.03
2023-01-29T06:33:43.342Z,102833.03
2023-01-29T06:34:44.015Z,102831.61
2023-01-29T06:35:44.660Z,102830.78
2023-01-29T06:36:45.283Z,102831.11
2023-01-29T06:36:54.395Z,102840.02
2023-01-29T06:37:55.204Z,102822.63
2023-01-29T06:38:56.248Z,102822.96
2023-01-29T06:39:56.974Z,102823.19
2023-01-29T06:40:57.484Z,102823.26
2023-01-29T06:41:58.403Z,102824.15
2023-01-29T06:42:58.583Z,102825.08
2023-01-29T06:43:59.330Z,102826.63
2023-01-29T06:44:59.903Z,102828.29
2023-01-29T06:46:00.562Z,102829.78
2023-01-29T06:47:01.320Z,102831.31
2023-01-29T06:48:01.791Z,102832.56
2023-01-29T06:49:02.237Z,102834.89
2023-01-29T06:50:03.039Z,102836.91
2023-01-29T06:51:03.247Z,102838.41
2023-01-29T06:52:03.741Z,102839.77
2023-01-29T06:53:04.525Z,102840.93
2023-01-29T06:54:04.672Z,102841.59
2023-01-29T06:55:04.981Z,102841.80
2023-01-29T06:56:04.985Z,102841.90
2023-01-29T06:57:05.829Z,102841.80
2023-01-29T06:58:05.888Z,102841.91
2023-01-29T06:59:06.807Z,102841.91
2023-01-29T07:00:07.420Z,102841.64
2023-01-29T07:01:07.795Z,102842.23
2023-01-29T07:02:07.874Z,102843.13
2023-01-29T07:03:08.121Z,102844.05
2023-01-29T07:04:08.894Z,102845.21
2023-01-29T07:05:09.428Z,102846.74
2023-01-29T07:06:10.220Z,102847.73
2023-01-29T07:07:11.007Z,102849.00
2023-01-29T07:08:11.448Z,102850.27
2023-01-29T07:08:23.075Z,102873.58
2023-01-29T07:09:23.368Z,102866.58
2023-01-29T07:10:24.631Z,102866.58
2023-01-29T07:11:23.955Z,102866.19
2023-01-29T07:12:24.922Z,102865.62
2023-01-29T07:13:26.812Z,102865.36
2023-01-29T07:14:26.727Z,102865.13
2023-01-29T07:15:27.656Z,102865.13
2023-01-29T07:16:29.079Z,102865.13
2023-01-29T07:17:29.556Z,102865.13
2023-01-29T07:18:30.392Z,102864.43
2023-01-29T07:19:30.714Z,102864.83
2023-01-29T07:20:31.121Z,102865.09
2023-01-29T07:21:32.136Z,102864.99
2023-01-29T07:22:32.903Z,102865.05
2023-01-29T07:23:33.105Z,102865.05
2023-01-29T07:24:33.384Z,102865.22
2023-01-29T07:25:34.144Z,102864.56
2023-01-29T07:26:35.053Z,102864.33
2023-01-29T07:27:35.300Z,102864.09
2023-01-29T07:28:36.294Z,102863.70
2023-01-29T07:29:36.821Z,102864.08
2023-01-29T07:30:37.550Z,102864.45
2023-01-29T07:31:38.694Z,102864.88
2023-01-29T07:32:39.148Z,102865.58
2023-01-29T07:33:39.729Z,102865.69
2023-01-29T07:34:40.512Z,102866.66
2023-01-29T07:35:41.073Z,102866.66
2023-01-29T07:36:41.322Z,102867.52
2023-01-29T07:37:42.121Z,102868.52
2023-01-29T07:38:42.149Z,102869.18
2023-01-29T07:39:42.855Z,102870.05
2023-01-29T07:40:43.540Z,102870.94
2023-01-29T07:40:52.174Z,102901.77
2023-01-29T07:41:53.144Z,102887.64
2023-01-29T07:42:54.086Z,102887.64
2023-01-29T07:43:54.798Z,102887.91
2023-01-29T07:44:55.740Z,102888.08
2023-01-29T07:45:56.644Z,102888.88
2023-01-29T07:46:57.221Z,102888.81
2023-01-29T07:47:57.739Z,102888.75
2023-01-29T07:48:58.068Z,102888.52
2023-01-29T07:49:58.047Z,102888.95
2023-01-29T07:50:59.074Z,102888.56
2023-01-29T07:51:59.130Z,102888.13
2023-01-29T07:52:59.168Z,102887.80
2023-01-29T07:53:59.258Z,102887.96
2023-01-29T07:54:59.476Z,102888.03
2023-01-29T07:56:00.386Z,102887.86
2023-01-29T07:57:01.181Z,102887.63
2023-01-29T07:58:01.948Z,102887.47
2023-01-29T07:59:02.749Z,102887.01
2023-01-29T08:00:03.476Z,102886.45
2023-01-29T08:01:04.263Z,102885.89
2023-01-29T08:02:05.191Z,102884.83
2023-01-29T08:03:05.990Z,102884.77
2023-01-29T08:04:06.813Z,102883.97
2023-01-29T08:05:06.950Z,102883.81
2023-01-29T08:06:07.019Z,102883.58
2023-01-29T08:07:07.648Z,102883.85
2023-01-29T08:08:08.156Z,102884.89
2023-01-29T08:09:08.420Z,102885.59
2023-01-29T08:10:08.618Z,102886.35
2023-01-29T08:11:08.666Z,102887.05
2023-01-29T08:12:09.567Z,102888.84
2023-01-29T08:12:18.196Z,102920.84
2023-01-29T08:13:18.896Z,102905.89
2023-01-29T08:14:19.893Z,102905.72
2023-01-29T08:15:20.747Z,102905.72
2023-01-29T08:16:21.272Z,102905.06
2023-01-29T08:17:21.198Z,102904.95
2023-01-29T08:18:21.445Z,102904.59
2023-01-29T08:19:21.571Z,102904.16
2023-01-29T08:20:21.773Z,102903.92
2023-01-29T08:21:21.896Z,102903.06
2023-01-29T08:22:22.728Z,102903.39
2023-01-29T08:23:23.302Z,102903.39
2023-01-29T08:24:28.256Z,102903.52
2023-01-29T08:25:24.360Z,102904.41
2023-01-29T08:26:25.634Z,102904.91
2023-01-29T08:27:25.203Z,102904.58
2023-01-29T08:28:25.199Z,102905.14
2023-01-29T08:29:28.366Z,102904.91
2023-01-29T08:30:29.510Z,102905.03
2023-01-29T08:31:27.367Z,102905.27
2023-01-29T08:32:28.114Z,102905.27
2023-01-29T08:33:38.949Z,102905.27
